Time;durP1;ratioP1;P1;durP2;ratioP2;P2;SDS_P1;SDS_P2;PMS_P1;PMS_P2;Temp;Humidity;BMP_temperature;BMP_pressure;BME280_temperature;BME280_humidity;BME280_pressure;Samples;Min_cycle;Max_cycle;Signal;HPM_P1;HPM_P2
2022/03/17 00:00:09;;;;;;;15.27;8.48;;;11.00;99.90;;;;;;5027643;28;20048;-77
2022/03/17 00:02:37;;;;;;;20.88;8.23;;;10.90;99.90;;;;;;5030865;28;20038;-82
2022/03/17 00:05:09;;;;;;;11.38;8.18;;;11.00;99.90;;;;;;5030744;28;20049;-79
2022/03/17 00:07:38;;;;;;;14.02;9.05;;;10.90;99.90;;;;;;5030516;28;20048;-79
2022/03/17 00:10:14;;;;;;;12.68;8.48;;;10.60;99.90;;;;;;5030177;28;20682;-80
2022/03/17 00:12:43;;;;;;;13.20;8.68;;;10.50;99.90;;;;;;5013682;28;20069;-80
2022/03/17 00:15:11;;;;;;;11.75;8.68;;;10.60;99.90;;;;;;5030860;28;20049;-73
2022/03/17 00:17:41;;;;;;;13.10;7.85;;;10.70;99.90;;;;;;5030975;28;20046;-78
2022/03/17 00:20:10;;;;;;;13.60;8.43;;;10.70;99.90;;;;;;5030935;28;20416;-74
2022/03/17 00:22:38;;;;;;;15.57;8.93;;;10.60;99.90;;;;;;5009983;28;20462;-77
2022/03/17 00:25:07;;;;;;;14.15;8.57;;;10.60;99.90;;;;;;5011314;28;20046;-75
2022/03/17 00:27:35;;;;;;;12.38;8.65;;;10.60;99.90;;;;;;5012842;28;20113;-80
2022/03/17 00:30:05;;;;;;;15.15;9.07;;;10.60;99.90;;;;;;5014678;28;20476;-77
2022/03/17 00:32:32;;;;;;;10.90;8.45;;;10.60;99.90;;;;;;5014939;28;20061;-78
2022/03/17 00:37:51;;;;;;;16.42;9.75;;;10.60;99.90;;;;;;5014956;28;20046;-79
2022/03/17 00:40:19;;;;;;;14.85;10.25;;;10.80;99.90;;;;;;5014568;28;20038;-78
2022/03/17 00:42:47;;;;;;;16.55;11.82;;;10.90;99.90;;;;;;5015090;28;20504;-78
2022/03/17 00:45:14;;;;;;;18.02;12.07;;;11.00;99.90;;;;;;5014445;28;20048;-76
2022/03/17 00:47:41;;;;;;;17.17;12.63;;;10.90;99.90;;;;;;5014657;28;20045;-78
2022/03/17 00:50:10;;;;;;;16.73;12.40;;;10.90;99.90;;;;;;5040891;28;20524;-76
2022/03/17 00:52:37;;;;;;;20.10;12.73;;;10.90;99.90;;;;;;5054049;28;20041;-78
2022/03/17 00:55:06;;;;;;;20.38;13.13;;;10.90;99.90;;;;;;5053803;28;20045;-76
2022/03/17 00:57:36;;;;;;;22.08;14.02;;;10.80;99.90;;;;;;5053856;28;20111;-74
2022/03/17 01:00:05;;;;;;;22.23;13.38;;;10.80;99.90;;;;;;5035611;28;20094;-79
2022/03/17 01:02:33;;;;;;;20.38;14.38;;;10.70;99.90;;;;;;5053650;28;20463;-76
2022/03/17 01:05:01;;;;;;;20.08;12.68;;;10.60;99.90;;;;;;5035733;28;20461;-78
2022/03/17 01:07:28;;;;;;;20.08;13.00;;;10.70;99.90;;;;;;5053279;28;20139;-77
2022/03/17 01:09:55;;;;;;;23.67;13.40;;;10.60;99.90;;;;;;5053101;28;20041;-74
2022/03/17 01:12:23;;;;;;;18.25;12.10;;;10.50;99.90;;;;;;5053687;28;20045;-78
2022/03/17 01:14:50;;;;;;;24.45;12.13;;;10.50;99.90;;;;;;5035333;28;20041;-74
2022/03/17 01:17:17;;;;;;;19.05;13.82;;;10.50;99.90;;;;;;5053417;28;20511;-81
2022/03/17 01:19:44;;;;;;;18.42;11.70;;;10.30;99.90;;;;;;5052873;28;20647;-73
2022/03/17 01:22:12;;;;;;;22.95;12.98;;;10.40;99.90;;;;;;5053191;28;20037;-78
2022/03/17 01:24:39;;;;;;;17.23;11.55;;;10.60;99.90;;;;;;5053325;28;20041;-84
2022/03/17 01:27:06;;;;;;;16.20;11.43;;;10.50;99.90;;;;;;5053167;28;20373;-79
2022/03/17 01:29:33;;;;;;;19.05;11.93;;;10.40;99.90;;;;;;5053261;28;20060;-79
2022/03/17 01:32:01;;;;;;;16.88;10.77;;;10.30;99.90;;;;;;5035205;28;20107;-77
2022/03/17 01:34:28;;;;;;;16.02;11.05;;;10.20;99.90;;;;;;5053266;28;20439;-81
2022/03/17 01:36:55;;;;;;;15.40;11.18;;;10.00;99.90;;;;;;5052846;28;20053;-77
2022/03/17 01:39:23;;;;;;;18.10;11.98;;;10.10;99.90;;;;;;5052894;28;20120;-75
2022/03/17 01:41:50;;;;;;;18.08;11.85;;;10.10;99.90;;;;;;5052855;28;20045;-77
2022/03/17 01:44:17;;;;;;;15.43;10.98;;;10.30;99.90;;;;;;5053605;28;20052;-76
2022/03/17 01:49:30;;;;;;;18.52;10.40;;;10.40;99.90;;;;;;5046539;28;20501;-75
2022/03/17 01:51:57;;;;;;;14.43;10.95;;;10.30;99.90;;;;;;5033068;28;20060;-79
2022/03/17 01:54:25;;;;;;;14.90;10.73;;;10.30;99.90;;;;;;5032844;28;20069;-77
2022/03/17 01:57:05;;;;;;;15.48;10.65;;;10.40;99.90;;;;;;5032827;28;20440;-78
2022/03/17 01:59:34;;;;;;;17.02;10.93;;;10.60;99.90;;;;;;5032683;28;20041;-78
2022/03/17 02:02:04;;;;;;;16.75;11.48;;;10.40;99.90;;;;;;5032540;28;20068;-79
2022/03/17 02:04:31;;;;;;;18.08;11.80;;;10.50;99.90;;;;;;5032570;28;20046;-78
2022/03/17 02:06:59;;;;;;;17.40;11.52;;;10.40;99.90;;;;;;5032302;28;20420;-79
2022/03/17 02:09:26;;;;;;;16.38;11.98;;;10.50;99.90;;;;;;5032737;28;20046;-80
2022/03/17 02:15:08;;;;;;;18.42;12.40;;;10.40;99.90;;;;;;5032234;28;20448;-76
2022/03/17 02:17:39;;;;;;;18.17;11.98;;;10.10;99.90;;;;;;5029619;28;20057;-78
2022/03/17 02:20:13;;;;;;;19.02;12.75;;;10.30;99.90;;;;;;5032056;28;20049;-80
2022/03/17 02:22:46;;;;;;;23.88;12.35;;;10.40;99.90;;;;;;5032009;28;20053;-79
2022/03/17 02:25:36;;;;;;;18.88;12.20;;;10.40;99.90;;;;;;5031891;28;20041;-80
2022/03/17 02:28:06;;;;;;;19.08;12.45;;;10.40;99.90;;;;;;5032744;28;20049;-80
2022/03/17 02:30:36;;;;;;;19.33;12.48;;;10.30;99.90;;;;;;5032093;28;20063;-77
2022/03/17 02:33:10;;;;;;;19.35;12.85;;;10.40;99.90;;;;;;5032018;28;20050;-79
2022/03/17 02:35:39;;;;;;;17.67;11.93;;;10.30;99.90;;;;;;5014058;28;20497;-80
2022/03/17 02:38:07;;;;;;;15.73;11.95;;;10.30;99.90;;;;;;5032130;28;20132;-80
2022/03/17 02:40:36;;;;;;;15.73;11.57;;;10.30;99.90;;;;;;5031432;28;20400;-75
2022/03/17 02:43:07;;;;;;;20.08;12.38;;;10.30;99.90;;;;;;5031651;28;20037;-77
2022/03/17 02:45:35;;;;;;;17.95;13.27;;;10.30;99.90;;;;;;5031721;28;20052;-76
2022/03/17 02:48:04;;;;;;;18.83;12.35;;;10.30;99.90;;;;;;5013980;28;20392;-78
2022/03/17 02:50:31;;;;;;;18.85;13.30;;;10.30;99.90;;;;;;5044231;28;20060;-77
2022/03/17 02:53:05;;;;;;;20.00;13.15;;;10.50;99.90;;;;;;5051398;28;20128;-79
2022/03/17 02:55:37;;;;;;;21.75;13.15;;;10.60;99.90;;;;;;5051281;28;20498;-73
2022/03/17 02:58:06;;;;;;;18.17;12.52;;;10.50;99.90;;;;;;5052479;28;20052;-78
2022/03/17 03:00:34;;;;;;;17.23;12.32;;;10.40;99.90;;;;;;5052012;28;20047;-72
2022/03/17 03:03:03;;;;;;;18.13;11.50;;;10.40;99.90;;;;;;5051829;28;20047;-73
2022/03/17 03:05:30;;;;;;;16.42;11.55;;;10.50;99.90;;;;;;5051681;28;20377;-74
2022/03/17 03:07:58;;;;;;;19.33;12.52;;;10.40;99.90;;;;;;5051630;28;20047;-74
2022/03/17 03:10:25;;;;;;;19.92;11.98;;;10.40;99.90;;;;;;5051696;28;20051;-75
2022/03/17 03:12:53;;;;;;;18.40;12.60;;;10.30;99.90;;;;;;5051999;28;20051;-76
2022/03/17 03:15:20;;;;;;;21.88;13.45;;;10.30;99.90;;;;;;5051368;28;20420;-78
2022/03/17 03:17:47;;;;;;;22.40;12.70;;;10.20;99.90;;;;;;5034013;28;20051;-78
2022/03/17 03:20:15;;;;;;;22.70;13.45;;;10.10;99.90;;;;;;5051638;28;20049;-74
2022/03/17 03:22:42;;;;;;;16.92;12.77;;;10.00;99.90;;;;;;5051414;28;20041;-78
2022/03/17 03:25:10;;;;;;;20.50;13.65;;;10.10;99.90;;;;;;5051622;28;20040;-80
2022/03/17 03:27:40;;;;;;;20.30;12.95;;;10.10;99.90;;;;;;5052011;28;20045;-79
2022/03/17 03:30:12;;;;;;;21.02;13.55;;;10.10;99.90;;;;;;5051327;28;20087;-82
2022/03/17 03:32:47;;;;;;;18.05;12.38;;;10.00;99.90;;;;;;5033829;28;20476;-81
2022/03/17 03:38:01;;;;;;;16.50;12.32;;;9.90;99.90;;;;;;5051590;28;20123;-78
2022/03/17 03:40:29;;;;;;;18.83;12.48;;;9.90;99.90;;;;;;5051020;28;20397;-79
2022/03/17 03:42:56;;;;;;;16.40;11.52;;;10.00;99.90;;;;;;5051465;28;20400;-78
2022/03/17 03:45:24;;;;;;;18.15;11.68;;;10.00;99.90;;;;;;5051442;28;20463;-74
2022/03/17 03:47:51;;;;;;;16.65;12.15;;;9.80;99.90;;;;;;5051017;28;20135;-81
2022/03/17 03:50:19;;;;;;;18.40;13.50;;;9.80;99.90;;;;;;5041714;28;20120;-79
2022/03/17 03:52:46;;;;;;;21.83;12.50;;;9.60;99.90;;;;;;5031624;28;20382;-79
2022/03/17 03:55:14;;;;;;;20.73;13.50;;;9.60;99.90;;;;;;5031178;28;20030;-79
2022/03/17 03:57:42;;;;;;;20.30;13.38;;;9.60;99.90;;;;;;5031776;28;20052;-79
2022/03/17 04:03:12;;;;;;;19.35;13.05;;;9.20;99.90;;;;;;4933578;29;20044;-77
2022/03/17 04:05:40;;;;;;;18.48;14.02;;;9.30;99.90;;;;;;5015811;28;20144;-76
2022/03/17 04:08:07;;;;;;;27.38;14.98;;;9.20;99.90;;;;;;5034625;28;20046;-77
2022/03/17 04:10:34;;;;;;;22.90;13.85;;;9.30;99.90;;;;;;5034675;28;20041;-78
2022/03/17 04:13:02;;;;;;;23.27;15.48;;;9.30;99.90;;;;;;5034508;28;20053;-75
2022/03/17 04:15:30;;;;;;;24.75;15.07;;;9.20;99.90;;;;;;5035220;28;20069;-76
2022/03/17 04:17:57;;;;;;;28.75;15.98;;;9.20;99.90;;;;;;5017436;28;20057;-78
2022/03/17 04:20:24;;;;;;;21.80;15.10;;;9.30;99.90;;;;;;5034701;28;20435;-78
2022/03/17 04:22:51;;;;;;;23.60;15.55;;;9.30;99.90;;;;;;5034721;28;20062;-79
2022/03/17 04:25:19;;;;;;;24.17;15.75;;;9.30;99.90;;;;;;5034721;28;20408;-76
2022/03/17 04:27:46;;;;;;;28.20;15.57;;;9.20;99.90;;;;;;5016813;28;20045;-77
2022/03/17 04:30:13;;;;;;;23.98;15.95;;;9.40;99.90;;;;;;5034164;28;20041;-75
2022/03/17 04:32:40;;;;;;;24.08;15.70;;;9.30;99.90;;;;;;5034422;28;20396;-80
2022/03/17 04:35:08;;;;;;;27.02;16.35;;;9.20;99.90;;;;;;5033636;28;20148;-78
2022/03/17 04:37:35;;;;;;;20.92;14.52;;;9.30;99.90;;;;;;5034233;28;20045;-79
2022/03/17 04:40:05;;;;;;;26.15;16.20;;;9.40;99.90;;;;;;5033965;28;20079;-78
2022/03/17 04:42:33;;;;;;;26.13;16.48;;;9.40;99.90;;;;;;5034337;28;20516;-81
2022/03/17 04:45:00;;;;;;;22.60;15.27;;;9.60;99.90;;;;;;5033902;28;20041;-76
2022/03/17 04:47:28;;;;;;;25.02;15.68;;;9.70;99.90;;;;;;5016787;28;20123;-75
2022/03/17 04:49:55;;;;;;;23.92;15.65;;;9.70;99.90;;;;;;5034140;28;20045;-76
2022/03/17 04:55:08;;;;;;;20.88;14.75;;;9.80;99.90;;;;;;5033951;28;20047;-77
2022/03/17 04:57:36;;;;;;;21.33;14.65;;;9.70;99.90;;;;;;5033972;28;20037;-75
2022/03/17 05:00:04;;;;;;;20.15;14.35;;;9.60;99.90;;;;;;5015978;28;20064;-74
2022/03/17 05:02:31;;;;;;;22.85;13.93;;;9.70;99.90;;;;;;5016149;28;20402;-78
2022/03/17 05:04:58;;;;;;;22.67;15.15;;;9.80;99.90;;;;;;5033420;28;20040;-80
2022/03/17 05:07:28;;;;;;;21.65;14.10;;;9.70;99.90;;;;;;5016436;28;20045;-75
2022/03/17 05:09:55;;;;;;;21.75;15.02;;;9.70;99.90;;;;;;5015576;28;20045;-75
2022/03/17 05:12:22;;;;;;;24.58;15.60;;;9.60;99.90;;;;;;5033850;28;20389;-78
2022/03/17 05:14:49;;;;;;;25.85;15.65;;;9.70;99.90;;;;;;5032974;28;20048;-75
2022/03/17 05:17:17;;;;;;;24.00;15.75;;;9.70;99.90;;;;;;5033719;28;20042;-77
2022/03/17 05:19:45;;;;;;;22.17;14.68;;;9.70;99.90;;;;;;5015704;28;20474;-78
2022/03/17 05:22:12;;;;;;;24.92;16.10;;;9.80;99.90;;;;;;5034008;28;20055;-77
2022/03/17 05:24:40;;;;;;;27.75;18.10;;;9.90;99.90;;;;;;5033703;28;20470;-76
2022/03/17 05:27:07;;;;;;;24.58;17.15;;;9.80;99.90;;;;;;5016286;28;20044;-79
2022/03/17 05:29:34;;;;;;;23.25;16.38;;;9.40;99.90;;;;;;5033413;28;20042;-77
2022/03/17 05:32:02;;;;;;;23.23;15.80;;;9.40;99.90;;;;;;5015181;28;20512;-80
2022/03/17 05:34:32;;;;;;;22.80;15.95;;;9.30;99.90;;;;;;5033291;28;20525;-76
2022/03/17 05:36:59;;;;;;;26.23;17.17;;;9.40;99.90;;;;;;5033160;28;20516;-74
2022/03/17 05:39:26;;;;;;;23.45;16.65;;;9.60;99.90;;;;;;5032552;28;20500;-73
2022/03/17 05:41:53;;;;;;;24.65;16.13;;;9.40;99.90;;;;;;5030516;28;20064;-79
2022/03/17 05:44:21;;;;;;;24.63;15.63;;;9.50;99.90;;;;;;5008168;28;20038;-78
2022/03/17 05:46:48;;;;;;;26.98;16.63;;;9.50;99.90;;;;;;5016329;28;20045;-76
2022/03/17 05:49:15;;;;;;;30.45;17.90;;;9.60;99.90;;;;;;5017690;28;20045;-78
2022/03/17 05:51:43;;;;;;;26.30;17.45;;;9.90;99.90;;;;;;5023613;28;20881;-77
2022/03/17 05:54:10;;;;;;;27.50;17.88;;;9.90;99.90;;;;;;5033089;28;20544;-80
2022/03/17 05:56:37;;;;;;;24.63;16.27;;;9.70;99.90;;;;;;5033404;28;20454;-78
2022/03/17 05:59:05;;;;;;;26.20;16.85;;;9.20;99.90;;;;;;5032741;28;20049;-78
2022/03/17 06:01:32;;;;;;;24.27;16.15;;;9.10;99.90;;;;;;5032960;28;20088;-75
2022/03/17 06:03:59;;;;;;;27.02;16.52;;;9.30;99.90;;;;;;5032777;28;20049;-74
2022/03/17 06:06:27;;;;;;;23.13;15.98;;;9.10;99.90;;;;;;5031776;28;20473;-74
2022/03/17 06:08:56;;;;;;;28.42;17.05;;;9.00;99.90;;;;;;5031413;28;20469;-75
2022/03/17 06:11:23;;;;;;;25.60;17.20;;;9.20;99.90;;;;;;5032433;28;20045;-76
2022/03/17 06:13:52;;;;;;;25.17;16.75;;;9.10;99.90;;;;;;5032494;28;20042;-74
2022/03/17 06:16:20;;;;;;;24.20;16.40;;;9.30;99.90;;;;;;5031999;28;20045;-78
2022/03/17 06:18:48;;;;;;;24.33;16.15;;;9.30;99.90;;;;;;5014405;28;20475;-75
2022/03/17 06:21:16;;;;;;;31.92;18.02;;;9.50;99.90;;;;;;5032217;28;20385;-75
2022/03/17 06:23:43;;;;;;;36.35;22.08;;;9.70;99.90;;;;;;5032133;28;20406;-74
2022/03/17 06:26:11;;;;;;;31.63;18.98;;;9.80;99.90;;;;;;5031516;28;20041;-75
2022/03/17 06:28:38;;;;;;;25.20;15.35;;;9.80;99.90;;;;;;5031907;28;20042;-73
2022/03/17 06:31:05;;;;;;;66.88;35.53;;;9.50;99.90;;;;;;5031767;28;20037;-73
2022/03/17 06:33:33;;;;;;;28.08;18.20;;;9.70;99.90;;;;;;5031893;28;20055;-72
2022/03/17 06:36:00;;;;;;;25.98;17.67;;;9.90;99.90;;;;;;5031954;28;20047;-74
2022/03/17 06:38:27;;;;;;;24.35;16.50;;;9.90;99.90;;;;;;5023146;28;20049;-76
2022/03/17 06:40:55;;;;;;;27.05;16.90;;;9.90;99.90;;;;;;5017805;28;20037;-73
2022/03/17 06:43:22;;;;;;;23.27;14.85;;;9.90;99.90;;;;;;5025222;28;20037;-74
2022/03/17 06:45:50;;;;;;;23.35;14.57;;;9.80;99.90;;;;;;5016758;28;20044;-73
2022/03/17 06:48:17;;;;;;;22.38;14.77;;;9.60;99.90;;;;;;5022212;28;20044;-73
2022/03/17 06:50:44;;;;;;;19.00;13.50;;;9.50;99.90;;;;;;5015830;28;20118;-75
2022/03/17 06:53:12;;;;;;;19.65;12.82;;;9.60;99.90;;;;;;5011586;28;20425;-73
2022/03/17 06:55:39;;;;;;;20.92;13.90;;;9.50;99.90;;;;;;5011445;28;20113;-74
2022/03/17 06:58:06;;;;;;;18.50;12.55;;;9.50;99.90;;;;;;5012435;28;20049;-74
2022/03/17 07:00:33;;;;;;;19.00;13.00;;;9.50;99.90;;;;;;5011760;28;20521;-76
2022/03/17 07:03:01;;;;;;;17.10;13.05;;;9.50;99.90;;;;;;5012181;28;20093;-71
2022/03/17 07:05:28;;;;;;;20.95;12.73;;;9.50;99.90;;;;;;5011726;28;20049;-75
2022/03/17 07:07:56;;;;;;;21.63;14.00;;;9.70;99.90;;;;;;4978132;28;20132;-76
2022/03/17 07:10:23;;;;;;;29.35;15.02;;;9.70;99.90;;;;;;5011480;28;20144;-74
2022/03/17 07:12:50;;;;;;;67.40;35.55;;;9.80;99.90;;;;;;5012231;28;20117;-71
2022/03/17 07:15:17;;;;;;;28.63;19.02;;;10.00;99.90;;;;;;5011172;28;20042;-74
2022/03/17 07:17:45;;;;;;;23.27;15.88;;;9.80;99.90;;;;;;5011372;28;20144;-76
2022/03/17 07:20:17;;;;;;;21.25;15.05;;;9.70;99.90;;;;;;5010818;28;20046;-76
2022/03/17 07:22:50;;;;;;;20.92;14.10;;;9.70;99.90;;;;;;5007783;28;20049;-75
2022/03/17 07:25:18;;;;;;;20.73;14.82;;;9.80;99.90;;;;;;5010904;28;20217;-78
2022/03/17 07:27:46;;;;;;;19.95;12.88;;;9.80;99.90;;;;;;5011691;28;20537;-77
2022/03/17 07:30:18;;;;;;;23.52;14.10;;;9.80;99.90;;;;;;4977215;28;20061;-78
2022/03/17 07:32:52;;;;;;;20.73;15.13;;;10.00;99.90;;;;;;4993679;28;20044;-79
2022/03/17 07:35:20;;;;;;;22.77;15.52;;;10.20;99.90;;;;;;5011043;28;20042;-79
2022/03/17 07:37:47;;;;;;;26.25;17.35;;;10.30;99.90;;;;;;5014542;28;20049;-76
2022/03/17 07:40:15;;;;;;;24.80;16.65;;;10.10;99.90;;;;;;5015330;28;20052;-73
2022/03/17 07:42:42;;;;;;;31.70;17.63;;;10.20;99.90;;;;;;5014920;28;20038;-79
2022/03/17 07:45:11;;;;;;;25.63;17.23;;;10.30;99.90;;;;;;5015302;28;20118;-75
2022/03/17 07:47:48;;;;;;;27.48;17.85;;;10.40;99.90;;;;;;5015652;28;20571;-76
2022/03/17 07:50:16;;;;;;;33.38;20.92;;;10.20;99.90;;;;;;5016515;28;20044;-80
2022/03/17 07:52:44;;;;;;;37.83;25.13;;;10.20;99.90;;;;;;5017760;28;20041;-85
2022/03/17 07:55:12;;;;;;;39.58;26.27;;;10.10;99.90;;;;;;5034918;28;20124;-79
2022/03/17 07:57:40;;;;;;;45.45;28.00;;;10.20;99.90;;;;;;5034927;28;20046;-82
2022/03/17 08:00:11;;;;;;;47.75;31.35;;;10.30;99.90;;;;;;5034465;28;20073;-74
2022/03/17 08:02:41;;;;;;;55.80;33.47;;;10.10;99.90;;;;;;5034902;28;20401;-81
2022/03/17 08:05:10;;;;;;;58.60;35.92;;;10.20;99.90;;;;;;5034472;28;20054;-78
2022/03/17 08:07:37;;;;;;;57.20;36.88;;;10.20;99.90;;;;;;5017381;28;20048;-76
2022/03/17 08:10:05;;;;;;;56.58;36.20;;;10.20;99.90;;;;;;5013128;28;20417;-75
2022/03/17 08:12:34;;;;;;;62.45;37.17;;;10.40;99.90;;;;;;5014442;28;20038;-77
2022/03/17 08:15:03;;;;;;;49.58;33.50;;;10.50;99.90;;;;;;4997333;28;20496;-79
2022/03/17 08:17:31;;;;;;;48.17;32.10;;;10.40;99.90;;;;;;5014724;28;20138;-76
2022/03/17 08:19:59;;;;;;;49.10;30.58;;;10.40;99.90;;;;;;5014641;28;20050;-73
2022/03/17 08:22:27;;;;;;;45.35;28.55;;;10.40;99.90;;;;;;5014291;28;20060;-78
2022/03/17 08:24:54;;;;;;;46.90;28.20;;;10.40;99.90;;;;;;4997290;28;20052;-74
2022/03/17 08:27:21;;;;;;;50.10;28.48;;;10.30;99.90;;;;;;5014614;28;20106;-78
2022/03/17 08:29:48;;;;;;;45.33;29.27;;;10.30;99.90;;;;;;5014245;28;20050;-74
2022/03/17 08:32:16;;;;;;;47.80;27.92;;;10.30;99.90;;;;;;4997215;28;20433;-78
2022/03/17 08:34:43;;;;;;;44.80;28.65;;;10.30;99.90;;;;;;5014627;28;20048;-74
2022/03/17 08:37:10;;;;;;;51.30;29.70;;;10.20;99.90;;;;;;5013861;28;20125;-77
2022/03/17 08:39:38;;;;;;;43.55;27.63;;;10.20;99.90;;;;;;5014317;28;20056;-76
2022/03/17 08:42:06;;;;;;;47.20;27.75;;;10.20;99.90;;;;;;5014500;28;20049;-80
2022/03/17 08:44:33;;;;;;;33.05;23.17;;;10.10;99.90;;;;;;5014382;28;20459;-77
2022/03/17 08:49:49;;;;;;;39.38;23.05;;;10.30;99.90;;;;;;5013621;28;20540;-78
2022/03/17 08:52:21;;;;;;;44.25;27.20;;;10.30;99.90;;;;;;5010913;28;20140;-79
2022/03/17 08:54:49;;;;;;;39.30;24.95;;;10.20;99.90;;;;;;5033898;28;20072;-76
2022/03/17 08:57:16;;;;;;;41.42;26.20;;;10.10;99.90;;;;;;5033470;28;20366;-76
2022/03/17 08:59:43;;;;;;;38.58;25.48;;;10.10;99.90;;;;;;5033785;28;20041;-79
2022/03/17 09:02:11;;;;;;;38.95;25.08;;;10.20;99.90;;;;;;5033673;28;20046;-75
2022/03/17 09:04:43;;;;;;;36.55;24.98;;;10.10;99.90;;;;;;5033329;28;20456;-78
2022/03/17 09:07:11;;;;;;;45.10;25.50;;;10.20;99.90;;;;;;5033284;28;20456;-81
2022/03/17 09:09:39;;;;;;;37.25;24.00;;;10.30;99.90;;;;;;5033634;28;20453;-75
2022/03/17 09:12:07;;;;;;;37.50;24.05;;;10.30;99.90;;;;;;5015764;28;20059;-75
2022/03/17 09:14:40;;;;;;;35.42;24.23;;;10.20;99.90;;;;;;5033869;28;20041;-77
2022/03/17 09:17:08;;;;;;;38.75;24.98;;;10.10;99.90;;;;;;4999983;28;20072;-79
2022/03/17 09:19:37;;;;;;;40.78;24.85;;;10.00;99.90;;;;;;5033408;28;20092;-78
2022/03/17 09:22:04;;;;;;;36.97;24.23;;;10.00;99.90;;;;;;5033494;28;20037;-78
2022/03/17 09:24:31;;;;;;;35.63;22.60;;;10.20;99.90;;;;;;5033612;28;20051;-75
2022/03/17 09:26:59;;;;;;;34.03;23.83;;;10.20;99.90;;;;;;5033852;28;20037;-79
2022/03/17 09:29:28;;;;;;;33.28;23.15;;;10.20;99.90;;;;;;5033421;28;20412;-77
2022/03/17 09:31:58;;;;;;;38.88;24.27;;;9.90;99.90;;;;;;5032629;28;20560;-78
2022/03/17 09:34:26;;;;;;;42.00;26.13;;;10.10;99.90;;;;;;5033151;28;20041;-76
2022/03/17 09:36:53;;;;;;;40.67;23.77;;;9.90;99.90;;;;;;5015177;28;20393;-77
2022/03/17 09:42:07;;;;;;;49.70;30.27;;;10.00;99.90;;;;;;5032772;28;20042;-76
2022/03/17 09:44:34;;;;;;;41.13;27.30;;;10.20;99.90;;;;;;5032393;28;20400;-76
2022/03/17 09:47:03;;;;;;;33.35;23.40;;;10.20;99.90;;;;;;5015557;28;20045;-79
2022/03/17 09:49:33;;;;;;;33.25;21.95;;;10.10;99.90;;;;;;4999330;28;20045;-78
2022/03/17 09:52:04;;;;;;;28.48;19.38;;;10.20;99.90;;;;;;5032397;28;20496;-77
2022/03/17 09:54:35;;;;;;;30.75;19.90;;;10.20;99.90;;;;;;5032159;28;20116;-77
2022/03/17 09:57:02;;;;;;;29.20;20.10;;;10.20;99.90;;;;;;5014893;28;20053;-85
2022/03/17 09:59:30;;;;;;;29.73;19.88;;;9.80;99.90;;;;;;5013888;28;20099;-77
2022/03/17 10:02:00;;;;;;;25.13;16.08;;;10.00;99.90;;;;;;5014213;28;20045;-76
2022/03/17 10:04:39;;;;;;;21.75;14.38;;;9.80;99.90;;;;;;5032311;28;20116;-76
2022/03/17 10:07:07;;;;;;;20.45;13.25;;;9.60;99.90;;;;;;5032248;28;20042;-78
2022/03/17 10:09:35;;;;;;;19.38;14.35;;;9.80;99.90;;;;;;5032247;28;20053;-76
2022/03/17 10:12:06;;;;;;;21.52;14.65;;;9.90;99.90;;;;;;5032392;28;20045;-77
2022/03/17 10:14:52;;;;;;;27.55;15.55;;;9.70;99.90;;;;;;5032300;28;20042;-72
2022/03/17 10:17:37;;;;;;;19.00;13.60;;;9.70;99.90;;;;;;5032003;28;20053;-77
2022/03/17 10:20:25;;;;;;;19.40;13.38;;;9.70;99.90;;;;;;5031918;28;20128;-77
2022/03/17 10:22:57;;;;;;;21.35;14.32;;;9.70;99.90;;;;;;5031788;28;20049;-75
2022/03/17 10:25:27;;;;;;;19.98;14.25;;;9.60;99.90;;;;;;5013852;28;20052;-77
2022/03/17 10:27:55;;;;;;;23.65;14.40;;;9.70;99.90;;;;;;5032349;28;20500;-76
2022/03/17 10:30:27;;;;;;;21.58;14.23;;;9.80;99.90;;;;;;5031698;28;20045;-76
2022/03/17 10:32:56;;;;;;;22.77;14.63;;;9.80;99.90;;;;;;5031458;28;20096;-73
2022/03/17 10:35:25;;;;;;;20.83;14.52;;;9.60;99.90;;;;;;5024105;28;20060;-76
2022/03/17 10:37:54;;;;;;;21.27;14.15;;;9.40;99.90;;;;;;5025290;28;20045;-72
2022/03/17 10:40:30;;;;;;;22.40;14.55;;;9.50;99.90;;;;;;5020714;28;20571;-72
2022/03/17 10:43:22;;;;;;;20.60;13.90;;;9.50;99.90;;;;;;5020859;28;20038;-74
2022/03/17 10:46:16;;;;;;;19.92;13.02;;;9.50;99.90;;;;;;5022967;28;20042;-74
2022/03/17 10:49:00;;;;;;;22.13;14.30;;;9.40;99.90;;;;;;5004862;28;20065;-74
2022/03/17 10:51:41;;;;;;;20.30;14.23;;;9.60;99.90;;;;;;5028251;28;20038;-73
2022/03/17 10:54:19;;;;;;;20.67;14.13;;;9.70;99.90;;;;;;5021359;28;20045;-74
2022/03/17 10:57:05;;;;;;;22.52;14.98;;;9.80;99.90;;;;;;5019307;28;20044;-73
2022/03/17 10:59:42;;;;;;;22.73;15.05;;;9.80;99.90;;;;;;5019770;28;20037;-77
2022/03/17 11:02:11;;;;;;;22.65;15.45;;;9.70;99.90;;;;;;5019128;28;20461;-74
2022/03/17 11:04:41;;;;;;;23.25;15.55;;;9.80;99.90;;;;;;5017028;28;20544;-76
2022/03/17 11:07:13;;;;;;;25.10;15.73;;;9.70;99.90;;;;;;5018876;28;20044;-75
2022/03/17 11:09:43;;;;;;;23.45;15.52;;;9.80;99.90;;;;;;5019525;28;20049;-76
2022/03/17 11:12:17;;;;;;;26.37;15.83;;;9.70;99.90;;;;;;5018960;28;20117;-75
2022/03/17 11:14:50;;;;;;;29.80;18.75;;;9.70;99.90;;;;;;5020775;28;20044;-75
2022/03/17 11:17:26;;;;;;;23.20;16.90;;;9.60;99.90;;;;;;5015399;28;20046;-75
2022/03/17 11:20:02;;;;;;;28.42;18.02;;;9.70;99.90;;;;;;5019418;28;20049;-75
2022/03/17 11:22:32;;;;;;;27.77;17.95;;;9.60;99.90;;;;;;5018037;28;20041;-79
2022/03/17 11:25:23;;;;;;;25.58;16.70;;;9.60;99.90;;;;;;5021048;28;20046;-75
2022/03/17 11:27:57;;;;;;;23.25;14.65;;;9.90;99.90;;;;;;5021728;28;20076;-75
2022/03/17 11:30:46;;;;;;;21.98;14.13;;;9.80;99.90;;;;;;5024882;28;20121;-76
2022/03/17 11:33:33;;;;;;;24.90;14.18;;;9.50;99.90;;;;;;5031174;28;20041;-76
2022/03/17 11:36:08;;;;;;;23.65;15.35;;;9.50;99.90;;;;;;5031133;28;20048;-77
2022/03/17 11:38:37;;;;;;;21.67;13.63;;;9.60;99.90;;;;;;5031042;28;20041;-75
2022/03/17 11:41:12;;;;;;;22.58;15.55;;;9.60;99.90;;;;;;5030933;28;20045;-73
2022/03/17 11:44:00;;;;;;;23.45;16.02;;;9.50;99.90;;;;;;5030785;28;20080;-77
2022/03/17 11:46:43;;;;;;;23.55;15.05;;;9.60;99.90;;;;;;5030521;28;20041;-75
2022/03/17 11:49:23;;;;;;;22.25;14.60;;;9.50;99.90;;;;;;5030370;28;20545;-77
2022/03/17 11:52:02;;;;;;;21.17;14.23;;;9.60;99.90;;;;;;5030270;28;20045;-77
2022/03/17 11:54:31;;;;;;;21.83;14.63;;;9.40;99.90;;;;;;5030483;28;20037;-75
2022/03/17 11:57:01;;;;;;;21.98;13.63;;;9.50;99.90;;;;;;5012877;28;20644;-75
2022/03/17 11:59:49;;;;;;;21.33;14.07;;;9.50;99.90;;;;;;5006231;28;20489;-74
2022/03/17 12:02:17;;;;;;;20.10;14.20;;;9.50;99.90;;;;;;5020898;28;20297;-74
2022/03/17 12:04:50;;;;;;;22.33;13.13;;;9.60;99.90;;;;;;5002016;28;20145;-75
2022/03/17 12:07:20;;;;;;;24.48;14.90;;;9.50;99.90;;;;;;5021025;28;20045;-74
2022/03/17 12:09:48;;;;;;;20.35;14.20;;;9.60;99.90;;;;;;5019330;28;20060;-73
2022/03/17 12:12:19;;;;;;;20.73;13.93;;;9.60;99.90;;;;;;5025014;28;20065;-73
2022/03/17 12:14:54;;;;;;;15.77;11.50;;;9.70;99.90;;;;;;5030354;28;20458;-73
2022/03/17 12:17:23;;;;;;;18.42;12.43;;;9.70;99.90;;;;;;5030357;28;20041;-75
2022/03/17 12:20:14;;;;;;;20.00;12.68;;;9.70;99.90;;;;;;5030149;28;20397;-74
2022/03/17 12:22:44;;;;;;;15.80;11.80;;;9.90;99.90;;;;;;5030754;28;20116;-72
2022/03/17 12:25:18;;;;;;;15.70;11.43;;;9.90;99.90;;;;;;5034128;28;20103;-73
2022/03/17 12:27:55;;;;;;;18.00;12.52;;;10.00;99.90;;;;;;5034370;28;20489;-72
2022/03/17 12:30:24;;;;;;;16.52;11.50;;;9.90;99.90;;;;;;5034165;28;20037;-74
2022/03/17 12:32:53;;;;;;;19.67;12.38;;;9.80;99.90;;;;;;5034395;28;20468;-75
2022/03/17 12:35:25;;;;;;;17.08;12.05;;;9.90;99.90;;;;;;5033834;28;20037;-74
2022/03/17 12:38:03;;;;;;;17.65;11.23;;;9.70;99.90;;;;;;5034010;28;20120;-73
2022/03/17 12:40:43;;;;;;;17.67;13.10;;;9.70;99.90;;;;;;4999860;28;20076;-73
2022/03/17 12:43:12;;;;;;;17.00;11.68;;;9.80;99.90;;;;;;5016627;28;20043;-75
2022/03/17 12:45:40;;;;;;;16.23;11.80;;;9.90;99.90;;;;;;5033076;28;20045;-73
2022/03/17 12:48:12;;;;;;;18.55;12.52;;;10.10;99.90;;;;;;5033704;28;20048;-76
2022/03/17 12:50:40;;;;;;;15.88;10.70;;;10.10;99.90;;;;;;5033661;28;20087;-77
2022/03/17 12:53:09;;;;;;;13.27;9.57;;;9.90;99.90;;;;;;5015800;28;20041;-73
2022/03/17 12:55:37;;;;;;;19.30;11.30;;;9.80;99.90;;;;;;5033564;28;20142;-74
2022/03/17 12:58:16;;;;;;;16.27;11.18;;;9.90;99.90;;;;;;5034357;28;20469;-73
2022/03/17 13:00:43;;;;;;;19.95;10.80;;;9.90;99.90;;;;;;5032709;28;20378;-73
2022/03/17 13:03:20;;;;;;;15.40;10.43;;;9.90;99.90;;;;;;5033658;28;20037;-71
2022/03/17 13:08:40;;;;;;;15.02;10.25;;;10.00;99.90;;;;;;5022802;28;20544;-74
2022/03/17 13:17:04;;;;;;;25.00;15.15;;;10.30;99.90;;;;;;5032747;28;20045;-75